createdAt,value
2023-10-09T00:01:06.526Z,98698.19
2023-10-09T00:03:34.245Z,98712.63
2023-10-09T00:06:02.747Z,98734.09
2023-10-09T00:08:32.290Z,98747.16
2023-10-09T00:11:14.889Z,98742.19
2023-10-09T00:13:52.309Z,98751.13
2023-10-09T00:16:36.570Z,98734.50
2023-10-09T00:19:31.162Z,98747.63
2023-10-09T00:21:59.802Z,98774.94
2023-10-09T00:24:26.576Z,98766.81
2023-10-09T00:27:02.842Z,98762.78
2023-10-09T00:29:36.089Z,98778.97
2023-10-09T00:32:14.695Z,98771.69
2023-10-09T00:34:41.479Z,98780.97
2023-10-09T00:37:17.282Z,98781.88
2023-10-09T00:39:45.228Z,98788.13
2023-10-09T00:42:16.798Z,98791.09
2023-10-09T00:44:43.573Z,98803.28
2023-10-09T00:47:22.155Z,98824.06
2023-10-09T00:50:02.152Z,98824.47
2023-10-09T00:52:33.936Z,98822.81
2023-10-09T00:55:24.614Z,98824.91
2023-10-09T00:58:01.346Z,98827.00
2023-10-09T01:00:46.440Z,98835.13
2023-10-09T01:03:18.234Z,98828.66
2023-10-09T01:06:04.546Z,98831.38
2023-10-09T01:08:44.851Z,98850.41
2023-10-09T01:11:19.804Z,98848.06
2023-10-09T01:13:47.865Z,98852.38
2023-10-09T01:16:18.521Z,98851.03
2023-10-09T01:18:48.224Z,98847.84
2023-10-09T01:21:15.916Z,98851.34
2023-10-09T01:24:02.171Z,98864.81
2023-10-09T01:26:48.518Z,98860.66
2023-10-09T01:29:20.352Z,98870.69
2023-10-09T01:32:01.987Z,98872.97
2023-10-09T01:34:46.165Z,98885.97
2023-10-09T01:37:18.462Z,98882.38
2023-10-09T01:39:46.713Z,98893.09
2023-10-09T01:42:24.644Z,98882.22
2023-10-09T01:44:51.858Z,98888.88
2023-10-09T01:47:20.120Z,98891.66
2023-10-09T01:49:50.045Z,98904.31
2023-10-09T01:52:17.601Z,98905.16
2023-10-09T01:54:52.423Z,98892.41
2023-10-09T01:57:24.003Z,98903.97
2023-10-09T01:59:54.713Z,98908.50
2023-10-09T02:02:32.667Z,98920.47
2023-10-09T02:05:08.699Z,98923.97
2023-10-09T02:07:41.904Z,98945.34
2023-10-09T02:10:33.232Z,98937.81
2023-10-09T02:13:01.467Z,98938.84
2023-10-09T02:15:44.021Z,98935.00
2023-10-09T02:18:24.606Z,98928.19
2023-10-09T02:21:00.645Z,98939.47
2023-10-09T02:23:42.445Z,98946.25
2023-10-09T02:26:10.587Z,98959.25
2023-10-09T02:28:37.545Z,98953.31
2023-10-09T02:31:14.534Z,98955.81
2023-10-09T02:33:41.483Z,98953.88
2023-10-09T02:36:08.472Z,98962.47
2023-10-09T02:38:38.831Z,98973.84
2023-10-09T02:41:05.475Z,98973.38
2023-10-09T02:43:49.143Z,98967.03
2023-10-09T02:46:19.621Z,98972.84
2023-10-09T02:48:53.687Z,98974.50
2023-10-09T02:51:27.634Z,98982.06
2023-10-09T02:53:56.847Z,98987.22
2023-10-09T02:56:37.006Z,99000.03
2023-10-09T02:59:07.441Z,99001.25
2023-10-09T03:01:40.069Z,99011.72
2023-10-09T03:04:07.629Z,99018.06
2023-10-09T03:06:39.526Z,99016.19
2023-10-09T03:09:17.814Z,99016.19
2023-10-09T03:11:49.395Z,99031.81
2023-10-09T03:14:18.124Z,99028.63
2023-10-09T03:16:44.842Z,99029.84
2023-10-09T03:19:12.074Z,99034.69
2023-10-09T03:21:38.807Z,99039.38
2023-10-09T03:24:06.730Z,99047.22
2023-10-09T03:26:33.503Z,99047.75
2023-10-09T03:29:03.207Z,99055.78
2023-10-09T03:31:32.002Z,99055.13
2023-10-09T03:33:58.858Z,99054.56
2023-10-09T03:36:28.010Z,99052.72
2023-10-09T03:38:59.361Z,99055.78
2023-10-09T03:41:30.368Z,99055.97
2023-10-09T03:43:57.037Z,99062.59
2023-10-09T03:46:34.237Z,99064.22
2023-10-09T03:49:11.900Z,99066.25
2023-10-09T03:51:38.731Z,99081.94
2023-10-09T03:54:08.938Z,99085.69
2023-10-09T03:56:36.355Z,99089.41
2023-10-09T03:59:05.843Z,99094.66
2023-10-09T04:01:42.144Z,99089.22
2023-10-09T04:04:11.937Z,99086.69
2023-10-09T04:06:39.078Z,99097.59
2023-10-09T04:09:19.968Z,99097.59
2023-10-09T04:11:47.985Z,99090.16
2023-10-09T04:14:40.901Z,99093.75
2023-10-09T04:17:27.515Z,99099.88
2023-10-09T04:20:13.064Z,99110.25
2023-10-09T04:22:43.844Z,99120.75
2023-10-09T04:25:16.101Z,99106.75
2023-10-09T04:27:42.929Z,99110.97
2023-10-09T04:30:16.514Z,99121.06
2023-10-09T04:32:46.383Z,99116.50
2023-10-09T04:35:25.798Z,99140.72
2023-10-09T04:38:04.765Z,99133.41
2023-10-09T04:40:52.674Z,99148.34
2023-10-09T04:43:22.245Z,99151.88
2023-10-09T04:46:09.212Z,99154.31
2023-10-09T04:48:46.997Z,99162.25
2023-10-09T04:51:22.452Z,99164.31
2023-10-09T04:54:09.781Z,99172.72
2023-10-09T04:56:52.634Z,99166.28
2023-10-09T04:59:20.206Z,99174.69
2023-10-09T05:01:59.070Z,99169.25
2023-10-09T05:04:38.894Z,99170.94
2023-10-09T05:07:24.079Z,99173.78
2023-10-09T05:09:57.665Z,99170.75
2023-10-09T05:12:30.523Z,99183.28
2023-10-09T05:15:14.504Z,99180.91
2023-10-09T05:17:47.103Z,99175.75
2023-10-09T05:20:28.794Z,99186.47
2023-10-09T05:22:58.455Z,99188.59
2023-10-09T05:25:54.559Z,99193.22
2023-10-09T05:28:37.418Z,99197.56
2023-10-09T05:31:08.922Z,99205.00
2023-10-09T05:33:39.216Z,99215.41
2023-10-09T05:36:27.054Z,99214.56
2023-10-09T05:39:00.369Z,99223.06
2023-10-09T05:41:48.886Z,99228.63
2023-10-09T05:44:34.140Z,99240.66
2023-10-09T05:47:19.039Z,99237.69
2023-10-09T05:49:56.252Z,99246.81
2023-10-09T05:52:39.032Z,99250.16
2023-10-09T05:55:42.368Z,99252.06
2023-10-09T05:58:27.583Z,99266.63
2023-10-09T06:01:13.042Z,99263.75
2023-10-09T06:04:13.504Z,99273.91
2023-10-09T06:06:46.307Z,99269.75
2023-10-09T06:09:15.128Z,99276.41
2023-10-09T06:12:12.518Z,99265.69
2023-10-09T06:14:39.180Z,99280.88
2023-10-09T06:17:14.627Z,99295.81
2023-10-09T06:19:50.046Z,99293.09
2023-10-09T06:22:25.836Z,99292.41
2023-10-09T06:24:55.316Z,99300.03
2023-10-09T06:27:32.175Z,99299.53
2023-10-09T06:30:18.754Z,99308.75
2023-10-09T06:33:03.980Z,99308.84
2023-10-09T06:35:34.392Z,99312.69
2023-10-09T06:38:04.462Z,99320.78
2023-10-09T06:40:52.925Z,99325.84
2023-10-09T06:43:23.795Z,99326.00
2023-10-09T06:45:59.586Z,99326.38
2023-10-09T06:48:36.123Z,99345.19
2023-10-09T06:51:25.942Z,99337.03
2023-10-09T06:53:57.112Z,99346.03
2023-10-09T06:56:44.999Z,99340.78
2023-10-09T06:59:22.729Z,99342.84
2023-10-09T07:02:08.798Z,99337.41
2023-10-09T07:04:36.073Z,99345.19
2023-10-09T07:07:03.293Z,99335.53
2023-10-09T07:10:05.295Z,99345.84
2023-10-09T07:12:35.190Z,99351.81
2023-10-09T07:15:02.831Z,99358.56
2023-10-09T07:17:35.448Z,99355.72
2023-10-09T07:20:11.391Z,99359.56
2023-10-09T07:22:40.985Z,99355.19
2023-10-09T07:25:28.924Z,99356.63
2023-10-09T07:27:56.747Z,99352.84
2023-10-09T07:30:32.754Z,99357.06
2023-10-09T07:33:14.316Z,99360.69
2023-10-09T07:35:58.838Z,99350.38
2023-10-09T07:38:30.166Z,99353.88
2023-10-09T07:41:06.845Z,99360.88
2023-10-09T07:43:41.246Z,99368.09
2023-10-09T07:46:27.192Z,99363.72
2023-10-09T07:48:54.808Z,99369.72
2023-10-09T07:51:24.505Z,99369.41
2023-10-09T07:54:09.605Z,99367.38
2023-10-09T07:56:42.443Z,99367.84
2023-10-09T07:59:12.572Z,99367.41
2023-10-09T08:01:54.103Z,99365.25
2023-10-09T08:04:41.221Z,99363.56
2023-10-09T08:08:03.108Z,99362.34
2023-10-09T08:10:15.992Z,99372.22
2023-10-09T08:12:59.332Z,99356.66
2023-10-09T08:15:49.949Z,99361.50
2023-10-09T08:18:29.208Z,99357.88
2023-10-09T08:20:58.995Z,99362.97
2023-10-09T08:23:34.806Z,99354.69
2023-10-09T08:26:14.465Z,99358.25
2023-10-09T08:28:49.863Z,99363.63
2023-10-09T08:31:36.131Z,99361.22
2023-10-09T08:36:37.866Z,99360.31
2023-10-09T08:39:26.213Z,99358.09
2023-10-09T08:41:53.717Z,99361.75
2023-10-09T08:44:26.228Z,99367.03
2023-10-09T08:46:55.381Z,99368.69
2023-10-09T08:49:22.800Z,99370.16
2023-10-09T08:51:49.734Z,99356.25
2023-10-09T08:54:16.694Z,99373.41
2023-10-09T08:56:52.745Z,99366.69
2023-10-09T08:59:20.924Z,99370.09
2023-10-09T09:01:53.127Z,99347.63
2023-10-09T09:04:36.468Z,99360.28
2023-10-09T09:07:03.424Z,99364.06
2023-10-09T09:09:33.113Z,99360.91
2023-10-09T09:12:01.268Z,99356.69
2023-10-09T09:14:40.168Z,99346.16
2023-10-09T09:17:12.733Z,99348.66
2023-10-09T09:19:39.668Z,99351.97
2023-10-09T09:22:14.205Z,99348.25
2023-10-09T09:24:48.753Z,99351.28
2023-10-09T09:27:19.803Z,99355.25
2023-10-09T09:29:54.145Z,99351.72
2023-10-09T09:32:37.284Z,99352.56
2023-10-09T09:35:07.512Z,99345.97
2023-10-09T09:37:44.788Z,99347.25
2023-10-09T09:40:34.779Z,99346.44
2023-10-09T09:43:06.539Z,99342.66
2023-10-09T09:45:36.022Z,99320.78
2023-10-09T09:48:07.595Z,99325.19
2023-10-09T09:50:38.141Z,99330.44
2023-10-09T09:53:05.200Z,99323.91
2023-10-09T09:55:35.452Z,99313.34
2023-10-09T09:58:07.473Z,99319.44
2023-10-09T10:00:41.967Z,99297.19
2023-10-09T10:03:23.605Z,99291.66
2023-10-09T10:05:52.061Z,99289.06
2023-10-09T10:08:21.380Z,99283.81
2023-10-09T10:10:51.204Z,99277.72
2023-10-09T10:13:29.048Z,99272.63
2023-10-09T10:16:03.749Z,99265.97
2023-10-09T10:18:36.532Z,99258.97
2023-10-09T10:21:17.515Z,99247.50
2023-10-09T10:23:48.966Z,99248.19
2023-10-09T10:26:28.836Z,99250.56
2023-10-09T10:29:24.559Z,99244.16
2023-10-09T10:32:02.606Z,99231.81
2023-10-09T10:34:58.299Z,99221.00
2023-10-09T10:38:09.649Z,99220.91
2023-10-09T10:40:40.349Z,99205.50
2023-10-09T10:43:33.007Z,99202.72
2023-10-09T10:46:25.561Z,99206.34
2023-10-09T10:49:00.472Z,99198.97
2023-10-09T10:51:39.155Z,99191.88
2023-10-09T10:54:46.889Z,99184.59
2023-10-09T10:57:52.413Z,99190.19
2023-10-09T11:00:37.353Z,99181.06
2023-10-09T11:03:19.073Z,99190.78
2023-10-09T11:05:52.035Z,99186.16
2023-10-09T11:08:24.731Z,99177.97
2023-10-09T11:10:52.364Z,99168.47
2023-10-09T11:13:34.248Z,99168.13
2023-10-09T11:16:21.260Z,99162.31
2023-10-09T11:18:47.937Z,99161.31
2023-10-09T11:21:16.130Z,99148.19
2023-10-09T11:23:59.534Z,99130.09
2023-10-09T11:26:29.050Z,99136.84
2023-10-09T11:29:20.168Z,99140.50
2023-10-09T11:32:07.169Z,99145.81
2023-10-09T11:34:35.964Z,99143.81
2023-10-09T11:37:10.093Z,99142.38
2023-10-09T11:39:37.498Z,99142.00
2023-10-09T11:42:15.494Z,99138.03
2023-10-09T11:44:46.781Z,99137.59
2023-10-09T11:47:19.636Z,99136.91
2023-10-09T11:49:57.804Z,99130.28
2023-10-09T11:52:37.043Z,99123.69
2023-10-09T11:55:06.093Z,99129.22
2023-10-09T11:57:33.101Z,99122.13
2023-10-09T12:00:01.410Z,99117.78
2023-10-09T12:02:28.780Z,99116.84
2023-10-09T12:04:58.740Z,99118.69
2023-10-09T12:07:26.516Z,99120.19
2023-10-09T12:09:57.694Z,99110.47
2023-10-09T12:12:27.897Z,99101.00
2023-10-09T12:14:54.930Z,99110.22
2023-10-09T12:17:26.043Z,99105.88
2023-10-09T12:19:53.045Z,99101.03
2023-10-09T12:22:22.654Z,99107.72
2023-10-09T12:24:49.541Z,99096.50
2023-10-09T12:27:21.382Z,99094.56
2023-10-09T12:29:50.668Z,99094.63
2023-10-09T12:32:20.970Z,99085.88
2023-10-09T12:34:51.990Z,99090.75
2023-10-09T12:37:22.041Z,99086.09
2023-10-09T12:39:49.055Z,99086.94
2023-10-09T12:42:18.106Z,99072.16
2023-10-09T12:44:45.634Z,99073.09
2023-10-09T12:47:16.691Z,99065.97
2023-10-09T12:49:44.649Z,99056.25
2023-10-09T12:52:17.698Z,99052.53
2023-10-09T12:54:47.978Z,99041.16
2023-10-09T12:57:14.932Z,99034.97
2023-10-09T12:59:49.841Z,99029.59
2023-10-09T13:02:31.977Z,99016.22
2023-10-09T13:05:01.282Z,99004.25
2023-10-09T13:07:28.152Z,98991.31
2023-10-09T13:10:10.338Z,98987.28
2023-10-09T13:12:42.762Z,98976.88
2023-10-09T13:15:10.911Z,98966.59
2023-10-09T13:17:40.760Z,98967.00
2023-10-09T13:20:14.147Z,98958.16
2023-10-09T13:22:44.647Z,98945.16
2023-10-09T13:25:33.715Z,98949.91
2023-10-09T13:28:04.806Z,98947.53
2023-10-09T13:30:40.601Z,98944.81
2023-10-09T13:33:08.291Z,98943.19
2023-10-09T13:35:48.304Z,98940.59
2023-10-09T13:38:16.724Z,98936.50
2023-10-09T13:40:43.498Z,98947.63
2023-10-09T13:43:17.636Z,98942.38
2023-10-09T13:45:51.094Z,98937.50
2023-10-09T13:48:19.046Z,98926.75
2023-10-09T13:50:45.820Z,98913.97
2023-10-09T13:53:13.939Z,98912.13
2023-10-09T13:55:44.868Z,98901.94
2023-10-09T13:58:15.220Z,98897.22
2023-10-09T14:00:47.467Z,98906.53
2023-10-09T14:03:14.673Z,98896.09
2023-10-09T14:05:58.221Z,98903.53
2023-10-09T14:08:27.205Z,98896.72
2023-10-09T14:10:53.853Z,98906.72
2023-10-09T14:13:27.236Z,98902.06
2023-10-09T14:15:55.510Z,98881.03
2023-10-09T14:18:23.065Z,98880.13
2023-10-09T14:20:51.098Z,98884.88
2023-10-09T14:23:21.871Z,98876.41
2023-10-09T14:25:50.943Z,98873.03
2023-10-09T14:28:20.532Z,98873.03
2023-10-09T14:30:51.837Z,98875.00
2023-10-09T14:33:24.209Z,98878.56
2023-10-09T14:35:53.443Z,98875.59
2023-10-09T14:38:27.812Z,98869.34
2023-10-09T14:41:01.091Z,98874.41
2023-10-09T14:43:34.688Z,98878.19
2023-10-09T14:46:03.716Z,98868.53
2023-10-09T14:48:30.500Z,98872.78
2023-10-09T14:51:05.895Z,98868.34
2023-10-09T14:53:33.832Z,98863.53
2023-10-09T14:56:02.539Z,98871.13
2023-10-09T14:58:31.642Z,98861.72
2023-10-09T15:00:58.282Z,98865.25
2023-10-09T15:03:25.138Z,98867.16
2023-10-09T15:05:51.941Z,98871.41
2023-10-09T15:08:19.071Z,98869.69
2023-10-09T15:10:50.149Z,98868.66
2023-10-09T15:13:19.681Z,98867.38
2023-10-09T15:15:46.957Z,98871.25
2023-10-09T15:18:13.800Z,98863.28
2023-10-09T15:20:41.465Z,98857.59
2023-10-09T15:23:09.498Z,98856.41
2023-10-09T15:25:36.573Z,98861.22
2023-10-09T15:28:04.193Z,98851.19
2023-10-09T15:30:32.604Z,98840.47
2023-10-09T15:32:59.400Z,98844.84
2023-10-09T15:35:29.773Z,98844.44
2023-10-09T15:37:56.468Z,98843.84
2023-10-09T15:40:25.350Z,98844.50
2023-10-09T15:42:54.503Z,98841.59
2023-10-09T15:45:23.036Z,98839.31
2023-10-09T15:47:52.476Z,98836.59
2023-10-09T15:50:20.431Z,98825.06
2023-10-09T15:52:50.499Z,98819.41
2023-10-09T15:55:21.916Z,98813.97
2023-10-09T15:57:53.727Z,98813.19
2023-10-09T16:00:21.613Z,98821.56
2023-10-09T16:02:49.992Z,98816.94
2023-10-09T16:05:18.184Z,98818.41
2023-10-09T16:07:45.495Z,98823.22
2023-10-09T16:10:12.489Z,98815.28
2023-10-09T16:12:40.602Z,98819.47
2023-10-09T16:15:07.843Z,98820.69
2023-10-09T16:17:35.035Z,98819.44
2023-10-09T16:20:02.556Z,98826.78
2023-10-09T16:22:29.599Z,98817.69
2023-10-09T16:25:00.930Z,98822.91
2023-10-09T16:27:28.825Z,98836.28
2023-10-09T16:29:55.824Z,98834.56
2023-10-09T16:32:22.694Z,98845.47
2023-10-09T16:34:51.026Z,98841.28
2023-10-09T16:37:23.468Z,98840.44
2023-10-09T16:39:54.987Z,98838.53
2023-10-09T16:42:25.312Z,98836.03
2023-10-09T16:44:52.218Z,98850.25
2023-10-09T16:47:19.346Z,98841.28
2023-10-09T16:49:52.661Z,98840.88
2023-10-09T16:52:19.647Z,98827.63
2023-10-09T16:54:46.459Z,98831.44
2023-10-09T16:57:14.044Z,98822.59
2023-10-09T16:59:42.999Z,98825.50
2023-10-09T17:02:14.375Z,98817.09
2023-10-09T17:04:43.855Z,98812.50
2023-10-09T17:07:15.876Z,98818.94
2023-10-09T17:09:48.956Z,98812.75
2023-10-09T17:12:18.654Z,98812.06
2023-10-09T17:14:45.717Z,98805.53
2023-10-09T17:17:12.479Z,98806.81
2023-10-09T17:19:39.552Z,98810.13
2023-10-09T17:22:12.574Z,98788.13
2023-10-09T17:24:45.380Z,98789.63
2023-10-09T17:27:18.822Z,98791.94
2023-10-09T17:29:47.702Z,98787.72
2023-10-09T17:32:15.381Z,98782.69
2023-10-09T17:34:45.013Z,98785.75
2023-10-09T17:37:13.343Z,98780.47
2023-10-09T17:39:40.135Z,98769.97
2023-10-09T17:42:09.402Z,98772.47
2023-10-09T17:44:36.029Z,98773.06
2023-10-09T17:47:02.900Z,98769.91
2023-10-09T17:49:29.633Z,98763.16
2023-10-09T17:51:56.272Z,98770.03
2023-10-09T17:54:24.715Z,98770.63
2023-10-09T17:56:51.935Z,98775.22
2023-10-09T17:59:19.398Z,98778.44
2023-10-09T18:01:46.215Z,98775.78
2023-10-09T18:04:15.053Z,98777.94
2023-10-09T18:06:43.392Z,98775.44
2023-10-09T18:09:19.150Z,98776.47
2023-10-09T18:11:46.804Z,98778.16
2023-10-09T18:14:15.081Z,98771.56
2023-10-09T18:16:46.239Z,98774.28
2023-10-09T18:19:15.831Z,98770.16
2023-10-09T18:21:42.902Z,98764.88
2023-10-09T18:24:15.374Z,98768.16
2023-10-09T18:26:42.863Z,98764.22
2023-10-09T18:29:13.413Z,98758.34
2023-10-09T18:31:42.036Z,98751.22
2023-10-09T18:34:08.851Z,98749.00
2023-10-09T18:36:36.913Z,98755.81
2023-10-09T18:39:04.316Z,98757.31
2023-10-09T18:41:31.046Z,98741.66
2023-10-09T18:44:00.898Z,98744.56
2023-10-09T18:46:27.742Z,98741.03
2023-10-09T18:48:56.793Z,98735.78
2023-10-09T18:51:23.464Z,98734.50
2023-10-09T18:53:50.187Z,98735.47
2023-10-09T18:56:21.293Z,98727.88
2023-10-09T18:58:48.299Z,98736.47
2023-10-09T19:01:15.705Z,98746.75
2023-10-09T19:03:43.148Z,98744.06
2023-10-09T19:06:11.367Z,98745.66
2023-10-09T19:08:38.172Z,98742.94
2023-10-09T19:11:10.880Z,98745.03
2023-10-09T19:13:41.139Z,98747.03
2023-10-09T19:16:09.590Z,98748.22
2023-10-09T19:18:37.145Z,98730.03
2023-10-09T19:21:11.822Z,98739.66
2023-10-09T19:23:42.332Z,98737.66
2023-10-09T19:26:09.975Z,98733.72
2023-10-09T19:28:40.241Z,98729.38
2023-10-09T19:31:11.046Z,98744.31
2023-10-09T19:33:43.262Z,98746.00
2023-10-09T19:36:12.958Z,98741.53
2023-10-09T19:38:40.265Z,98730.75
2023-10-09T19:41:07.732Z,98736.31
2023-10-09T19:43:35.385Z,98726.63
2023-10-09T19:46:06.210Z,98728.69
2023-10-09T19:48:34.287Z,98727.19
2023-10-09T19:51:05.869Z,98734.94
2023-10-09T19:53:32.684Z,98721.25
2023-10-09T19:56:01.296Z,98727.03
2023-10-09T19:58:28.154Z,98729.50
2023-10-09T20:00:54.817Z,98720.78
2023-10-09T20:03:22.274Z,98730.00
2023-10-09T20:05:49.933Z,98732.31
2023-10-09T20:08:17.481Z,98726.66
2023-10-09T20:10:44.737Z,98725.06
2023-10-09T20:13:12.802Z,98733.63
2023-10-09T20:15:45.459Z,98728.91
2023-10-09T20:18:12.795Z,98723.50
2023-10-09T20:20:40.243Z,98725.19
2023-10-09T20:23:08.762Z,98723.81
2023-10-09T20:25:35.460Z,98724.47
2023-10-09T20:28:02.070Z,98705.03
2023-10-09T20:30:28.764Z,98722.16
2023-10-09T20:32:55.571Z,98730.09
2023-10-09T20:35:27.755Z,98706.25
2023-10-09T20:38:04.443Z,98706.22
2023-10-09T20:40:31.178Z,98702.38
2023-10-09T20:42:57.806Z,98696.97
2023-10-09T20:45:25.183Z,98697.19
2023-10-09T20:47:59.658Z,98698.72
2023-10-09T20:50:27.140Z,98704.00
2023-10-09T20:52:54.593Z,98707.59
2023-10-09T20:55:26.055Z,98704.53
2023-10-09T20:58:00.656Z,98701.88
2023-10-09T21:00:33.178Z,98706.56
2023-10-09T21:03:00.205Z,98699.84
2023-10-09T21:05:27.361Z,98698.34
2023-10-09T21:07:55.510Z,98698.84
2023-10-09T21:10:23.094Z,98693.53
2023-10-09T21:12:51.023Z,98696.06
2023-10-09T21:15:22.160Z,98698.91
2023-10-09T21:17:53.450Z,98704.22
2023-10-09T21:20:20.972Z,98695.72
2023-10-09T21:22:55.134Z,98692.84
2023-10-09T21:25:26.470Z,98703.94
2023-10-09T21:27:55.654Z,98704.41
2023-10-09T21:30:24.629Z,98703.09
2023-10-09T21:32:54.684Z,98691.03
2023-10-09T21:35:23.157Z,98689.28
2023-10-09T21:37:53.504Z,98686.31
2023-10-09T21:40:29.470Z,98684.31
2023-10-09T21:42:57.071Z,98684.41
2023-10-09T21:45:25.503Z,98678.00
2023-10-09T21:47:56.441Z,98667.81
2023-10-09T21:50:28.898Z,98668.75
2023-10-09T21:52:59.824Z,98678.00
2023-10-09T21:55:32.358Z,98662.78
2023-10-09T21:58:02.450Z,98672.03
2023-10-09T22:00:37.409Z,98663.72
2023-10-09T22:03:09.399Z,98655.78
2023-10-09T22:05:43.142Z,98651.59
2023-10-09T22:08:11.135Z,98659.41
2023-10-09T22:10:39.018Z,98671.84
2023-10-09T22:13:09.041Z,98675.00
2023-10-09T22:15:36.209Z,98677.44
2023-10-09T22:18:11.092Z,98668.75
2023-10-09T22:20:38.944Z,98677.69
2023-10-09T22:23:12.002Z,98672.66
2023-10-09T22:25:38.742Z,98668.31
2023-10-09T22:28:10.325Z,98666.91
2023-10-09T22:30:37.665Z,98667.47
2023-10-09T22:33:06.145Z,98652.78
2023-10-09T22:35:34.676Z,98657.38
2023-10-09T22:38:09.098Z,98672.38
2023-10-09T22:40:39.998Z,98656.09
2023-10-09T22:43:10.429Z,98675.47
2023-10-09T22:45:40.749Z,98670.03
2023-10-09T22:48:08.018Z,98677.72
2023-10-09T22:50:37.629Z,98677.34
2023-10-09T22:53:23.492Z,98673.38
2023-10-09T22:55:55.162Z,98676.75
2023-10-09T22:58:29.436Z,98661.88
2023-10-09T23:01:02.373Z,98679.44
2023-10-09T23:03:29.725Z,98663.56
2023-10-09T23:06:25.144Z,98655.44
2023-10-09T23:08:55.960Z,98674.06
2023-10-09T23:11:26.678Z,98671.72
2023-10-09T23:13:53.755Z,98680.53
2023-10-09T23:16:34.866Z,98681.72
2023-10-09T23:19:08.222Z,98671.00
2023-10-09T23:21:53.368Z,98665.66
2023-10-09T23:24:28.633Z,98646.69
2023-10-09T23:26:56.647Z,98640.72
2023-10-09T23:29:30.753Z,98635.47
2023-10-09T23:32:20.650Z,98629.88
2023-10-09T23:34:56.023Z,98611.03
2023-10-09T23:37:58.036Z,98622.16
2023-10-09T23:40:39.210Z,98609.47
2023-10-09T23:43:13.956Z,98595.19
2023-10-09T23:45:42.214Z,98598.75
2023-10-09T23:48:15.815Z,98608.56
2023-10-09T23:50:45.363Z,98614.38
2023-10-09T23:53:16.047Z,98629.94
2023-10-09T23:55:45.760Z,98621.25
2023-10-09T23:58:17.734Z,98615.84
